Time;durP1;ratioP1;P1;durP2;ratioP2;P2;SDS_P1;SDS_P2;PMS_P1;PMS_P2;Temp;Humidity;BMP_temperature;BMP_pressure;BME280_temperature;BME280_humidity;BME280_pressure;Samples;Min_cycle;Max_cycle;Signal;HPM_P1;HPM_P2
2022/03/31 00:00:08;;;;;;;;;;;;;;;;;;344498;28;842;-74
2022/03/31 00:00:19;;;;;;;;;;;;;;;;;;343828;28;1171;-74
2022/03/31 00:00:34;;;;;;;;;;;;;;;;;;344439;28;937;-74
2022/03/31 00:00:47;;;;;;;;;;;;;;;;;;344421;28;894;-74
2022/03/31 00:00:57;;;;;;;;;;;;;;;;;;344395;28;934;-74
2022/03/31 00:01:08;;;;;;;;;;;;;;;;;;344395;28;894;-74
2022/03/31 00:01:18;;;;;;;;;;;;;;;;;;344422;28;893;-74
2022/03/31 00:01:28;;;;;;;;;;;;;;;;;;344456;28;1179;-74
2022/03/31 00:01:38;;;;;;;;;;;;;;;;;;344433;28;964;-74
2022/03/31 00:01:49;;;;;;;;;;;;;;;;;;344330;28;1801;-74
2022/03/31 00:01:59;;;;;;;;;;;;;;;;;;343971;28;1730;-74
2022/03/31 00:02:10;;;;;;;;;;;;;;;;;;344343;28;1718;-74
2022/03/31 00:02:21;;;;;;;;;;;;;;;;;;344160;28;1600;-74
2022/03/31 00:02:31;;;;;;;;;;;;;;;;;;344493;28;921;-74
2022/03/31 00:02:42;;;;;;;;;;;;;;;;;;344374;28;909;-74
2022/03/31 00:02:52;;;;;;;;;;;;;;;;;;344497;28;854;-74
2022/03/31 00:03:04;;;;;;;;;;;;;;;;;;344457;28;913;-74
2022/03/31 00:03:15;;;;;;;;;;;;;;;;;;344368;28;941;-74
2022/03/31 00:03:26;;;;;;;;;;;;;;;;;;344472;28;854;-74
2022/03/31 00:03:36;;;;;;;;;;;;;;;;;;344537;28;802;-74
2022/03/31 00:03:47;;;;;;;;;;;;;;;;;;344467;28;936;-74
2022/03/31 00:03:57;;;;;;;;;;;;;;;;;;344447;28;783;-74
2022/03/31 00:04:07;;;;;;;;;;;;;;;;;;344500;28;1083;-74
2022/03/31 00:04:17;;;;;;;;;;;;;;;;;;344473;28;1054;-73
2022/03/31 00:04:28;;;;;;;;;;;;;;;;;;344482;28;845;-73
2022/03/31 00:04:38;;;;;;;;;;;;;;;;;;344462;28;885;-73
2022/03/31 00:04:48;;;;;;;;;;;;;;;;;;344538;28;865;-73
2022/03/31 00:04:59;;;;;;;;;;;;;;;;;;344479;28;850;-73
2022/03/31 00:05:09;;;;;;;;;;;;;;;;;;344485;28;1032;-73
2022/03/31 00:05:20;;;;;;;;;;;;;;;;;;344399;28;965;-73
2022/03/31 00:05:30;;;;;;;;;;;;;;;;;;344436;28;1532;-73
2022/03/31 00:05:41;;;;;;;;;;;;;;;;;;344504;28;938;-73
2022/03/31 00:05:51;;;;;;;;;;;;;;;;;;344486;28;862;-73
2022/03/31 00:06:02;;;;;;;;;;;;;;;;;;344217;28;1600;-73
2022/03/31 00:06:12;;;;;;;;;;;;;;;;;;344400;28;1538;-73
2022/03/31 00:06:22;;;;;;;;;;;;;;;;;;344395;28;862;-73
2022/03/31 00:06:33;;;;;;;;;;;;;;;;;;344390;28;973;-73
2022/03/31 00:06:43;;;;;;;;;;;;;;;;;;344345;28;1557;-73
2022/03/31 00:06:54;;;;;;;;;;;;;;;;;;344415;28;989;-73
2022/03/31 00:07:04;;;;;;;;;;;;;;;;;;344462;28;798;-73
2022/03/31 00:07:14;;;;;;;;;;;;;;;;;;344379;28;969;-73
2022/03/31 00:07:25;;;;;;;;;;;;;;;;;;343775;28;1542;-74
2022/03/31 00:07:35;;;;;;;;;;;;;;;;;;343870;28;1454;-74
2022/03/31 00:07:59;;;;;;;;;;;;;;;;;;345471;28;842;-74
2022/03/31 00:08:13;;;;;;;;;;;;;;;;;;345793;28;925;-74
2022/03/31 00:08:23;;;;;;;;;;;;;;;;;;345829;28;791;-74
2022/03/31 00:08:33;;;;;;;;;;;;;;;;;;345757;28;1041;-74
2022/03/31 00:08:44;;;;;;;;;;;;;;;;;;345795;28;933;-74
2022/03/31 00:08:54;;;;;;;;;;;;;;;;;;345772;28;996;-74
2022/03/31 00:09:04;;;;;;;;;;;;;;;;;;344659;28;1560;-74
2022/03/31 00:09:14;;;;;;;;;;;;;;;;;;344526;28;767;-74
2022/03/31 00:09:25;;;;;;;;;;;;;;;;;;344456;28;1085;-74
2022/03/31 00:09:35;;;;;;;;;;;;;;;;;;344351;28;929;-74
2022/03/31 00:09:45;;;;;;;;;;;;;;;;;;344528;28;763;-74
2022/03/31 00:09:56;;;;;;;;;;;;;;;;;;344423;28;862;-74
2022/03/31 00:10:06;;;;;;;;;;;;;;;;;;344406;28;906;-74
2022/03/31 00:10:20;;;;;;;;;;;;;;;;;;344394;28;851;-74
2022/03/31 00:10:32;;;;;;;;;;;;;;;;;;344171;28;1640;-74
2022/03/31 00:10:44;;;;;;;;;;;;;;;;;;344432;28;977;-74
2022/03/31 00:10:55;;;;;;;;;;;;;;;;;;344458;28;981;-74
2022/03/31 00:11:06;;;;;;;;;;;;;;;;;;344392;28;910;-74
2022/03/31 00:11:17;;;;;;;;;;;;;;;;;;344438;28;810;-74
2022/03/31 00:11:28;;;;;;;;;;;;;;;;;;344478;28;854;-74
2022/03/31 00:11:38;;;;;;;;;;;;;;;;;;344282;28;930;-74
2022/03/31 00:11:48;;;;;;;;;;;;;;;;;;344456;28;1082;-74
2022/03/31 00:11:59;;;;;;;;;;;;;;;;;;344440;28;874;-74
2022/03/31 00:12:09;;;;;;;;;;;;;;;;;;344436;28;969;-74
2022/03/31 00:12:19;;;;;;;;;;;;;;;;;;344450;28;926;-74
2022/03/31 00:12:31;;;;;;;;;;;;;;;;;;344063;28;1502;-74
2022/03/31 00:12:41;;;;;;;;;;;;;;;;;;344380;28;1055;-74
2022/03/31 00:12:52;;;;;;;;;;;;;;;;;;344433;28;981;-74
2022/03/31 00:13:04;;;;;;;;;;;;;;;;;;344456;28;949;-74
2022/03/31 00:13:15;;;;;;;;;;;;;;;;;;344376;28;965;-74
2022/03/31 00:13:27;;;;;;;;;;;;;;;;;;344186;28;1934;-74
2022/03/31 00:13:37;;;;;;;;;;;;;;;;;;344373;28;1013;-74
2022/03/31 00:13:48;;;;;;;;;;;;;;;;;;344390;28;909;-74
2022/03/31 00:13:59;;;;;;;;;;;;;;;;;;344474;28;925;-74
2022/03/31 00:14:09;;;;;;;;;;;;;;;;;;344451;28;969;-74
2022/03/31 00:14:19;;;;;;;;;;;;;;;;;;344517;28;850;-74
2022/03/31 00:14:30;;;;;;;;;;;;;;;;;;344448;28;897;-74
2022/03/31 00:14:40;;;;;;;;;;;;;;;;;;344381;28;985;-74
2022/03/31 00:14:51;;;;;;;;;;;;;;;;;;344472;28;838;-74
2022/03/31 00:15:01;;;;;;;;;;;;;;;;;;344466;28;783;-74
2022/03/31 00:15:11;;;;;;;;;;;;;;;;;;344444;28;1159;-74
2022/03/31 00:15:23;;;;;;;;;;;;;;;;;;344219;28;1557;-74
2022/03/31 00:15:34;;;;;;;;;;;;;;;;;;344464;28;980;-74
2022/03/31 00:15:44;;;;;;;;;;;;;;;;;;344458;28;810;-74
2022/03/31 00:15:57;;;;;;;;;;;;;;;;;;344347;28;869;-74
2022/03/31 00:16:08;;;;;;;;;;;;;;;;;;344469;28;918;-74
2022/03/31 00:16:18;;;;;;;;;;;;;;;;;;344461;28;949;-74
2022/03/31 00:16:28;;;;;;;;;;;;;;;;;;344464;28;964;-74
2022/03/31 00:16:39;;;;;;;;;;;;;;;;;;344387;28;901;-74
2022/03/31 00:16:49;;;;;;;;;;;;;;;;;;344453;28;992;-74
2022/03/31 00:16:59;;;;;;;;;;;;;;;;;;344504;28;1466;-74
2022/03/31 00:17:09;;;;;;;;;;;;;;;;;;344431;28;1762;-74
2022/03/31 00:17:20;;;;;;;;;;;;;;;;;;344590;28;1731;-74
2022/03/31 00:17:30;;;;;;;;;;;;;;;;;;344492;28;1534;-74
2022/03/31 00:17:40;;;;;;;;;;;;;;;;;;344668;28;961;-74
2022/03/31 00:17:51;;;;;;;;;;;;;;;;;;344740;28;961;-74
2022/03/31 00:18:02;;;;;;;;;;;;;;;;;;344628;28;925;-74
2022/03/31 00:18:14;;;;;;;;;;;;;;;;;;344640;28;984;-74
2022/03/31 00:18:25;;;;;;;;;;;;;;;;;;344663;28;961;-74
2022/03/31 00:18:35;;;;;;;;;;;;;;;;;;344512;28;1616;-74
2022/03/31 00:18:46;;;;;;;;;;;;;;;;;;344283;28;1693;-74
2022/03/31 00:18:56;;;;;;;;;;;;;;;;;;344618;28;1600;-74
2022/03/31 00:19:06;;;;;;;;;;;;;;;;;;344677;28;858;-74
2022/03/31 00:19:17;;;;;;;;;;;;;;;;;;344659;28;888;-74
2022/03/31 00:19:27;;;;;;;;;;;;;;;;;;344699;28;981;-74
2022/03/31 00:19:38;;;;;;;;;;;;;;;;;;344661;28;1062;-74
2022/03/31 00:19:48;;;;;;;;;;;;;;;;;;344606;28;901;-74
2022/03/31 00:19:58;;;;;;;;;;;;;;;;;;344659;28;909;-74
2022/03/31 00:32:30;;;;;;;;;;;;;;;;;;343206;28;938;-74
2022/03/31 00:32:41;;;;;;;;;;;;;;;;;;343768;28;1668;-74
2022/03/31 00:32:52;;;;;;;;;;;;;;;;;;344674;28;921;-73
2022/03/31 00:33:02;;;;;;;;;;;;;;;;;;344621;28;1036;-73
2022/03/31 00:33:13;;;;;;;;;;;;;;;;;;344639;28;913;-73
2022/03/31 00:33:23;;;;;;;;;;;;;;;;;;344656;28;945;-73
2022/03/31 00:33:33;;;;;;;;;;;;;;;;;;344631;28;1918;-73
2022/03/31 00:33:43;;;;;;;;;;;;;;;;;;344724;28;910;-73
2022/03/31 00:33:54;;;;;;;;;;;;;;;;;;344590;28;1016;-73
2022/03/31 00:34:04;;;;;;;;;;;;;;;;;;344639;28;893;-73
2022/03/31 00:34:14;;;;;;;;;;;;;;;;;;344633;28;866;-73
2022/03/31 00:34:25;;;;;;;;;;;;;;;;;;344542;28;1017;-73
2022/03/31 00:34:36;;;;;;;;;;;;;;;;;;344622;28;1000;-73
2022/03/31 00:34:46;;;;;;;;;;;;;;;;;;344469;28;1612;-73
2022/03/31 00:34:56;;;;;;;;;;;;;;;;;;344430;28;1781;-73
2022/03/31 00:35:07;;;;;;;;;;;;;;;;;;344531;28;1829;-73
2022/03/31 00:35:18;;;;;;;;;;;;;;;;;;344651;28;901;-73
2022/03/31 00:35:28;;;;;;;;;;;;;;;;;;344650;28;929;-73
2022/03/31 00:35:38;;;;;;;;;;;;;;;;;;344624;28;866;-73
2022/03/31 00:35:49;;;;;;;;;;;;;;;;;;344646;28;949;-73
2022/03/31 00:35:59;;;;;;;;;;;;;;;;;;344714;28;818;-73
2022/03/31 00:36:09;;;;;;;;;;;;;;;;;;344617;28;941;-73
2022/03/31 00:36:19;;;;;;;;;;;;;;;;;;344667;28;847;-73
2022/03/31 00:36:30;;;;;;;;;;;;;;;;;;344564;28;997;-73
2022/03/31 00:36:49;;;;;;;;;;;;;;;;;;344168;28;1652;-73
2022/03/31 00:37:00;;;;;;;;;;;;;;;;;;344663;28;822;-73
2022/03/31 00:37:28;;;;;;;;;;;;;;;;;;344661;28;948;-73
2022/03/31 00:37:43;;;;;;;;;;;;;;;;;;344619;28;999;-73
2022/03/31 00:37:53;;;;;;;;;;;;;;;;;;344656;28;992;-73
2022/03/31 00:38:03;;;;;;;;;;;;;;;;;;344693;28;905;-74
2022/03/31 00:38:14;;;;;;;;;;;;;;;;;;344599;28;1039;-74
2022/03/31 00:38:24;;;;;;;;;;;;;;;;;;344609;28;883;-74
2022/03/31 00:38:34;;;;;;;;;;;;;;;;;;344659;28;1011;-74
2022/03/31 00:39:28;;;;;;;;;;;;;;;;;;344454;28;1589;-74
2022/03/31 00:39:31;;;;;;;;;;;;;;;;;;344539;28;900;-74
2022/03/31 00:39:42;;;;;;;;;;;;;;;;;;344619;28;802;-74
2022/03/31 00:39:52;;;;;;;;;;;;;;;;;;344469;28;1183;-74
2022/03/31 00:40:03;;;;;;;;;;;;;;;;;;344696;28;980;-74
2022/03/31 00:40:18;;;;;;;;;;;;;;;;;;344248;28;1164;-74
2022/03/31 00:40:30;;;;;;;;;;;;;;;;;;344686;28;913;-74
2022/03/31 00:40:40;;;;;;;;;;;;;;;;;;344626;28;861;-73
2022/03/31 00:40:51;;;;;;;;;;;;;;;;;;344564;28;897;-73
2022/03/31 00:41:01;;;;;;;;;;;;;;;;;;344606;28;985;-73
2022/03/31 00:41:11;;;;;;;;;;;;;;;;;;344603;28;901;-73
2022/03/31 00:41:23;;;;;;;;;;;;;;;;;;344627;28;1027;-73
2022/03/31 00:41:34;;;;;;;;;;;;;;;;;;344694;28;1093;-73
2022/03/31 00:41:45;;;;;;;;;;;;;;;;;;344605;28;897;-73
2022/03/31 00:41:55;;;;;;;;;;;;;;;;;;344613;28;984;-73
2022/03/31 00:42:06;;;;;;;;;;;;;;;;;;344668;28;965;-73
2022/03/31 00:42:16;;;;;;;;;;;;;;;;;;344605;28;1354;-73
2022/03/31 00:42:27;;;;;;;;;;;;;;;;;;344486;28;1577;-73
2022/03/31 00:42:41;;;;;;;;;;;;;;;;;;344689;28;822;-73
2022/03/31 00:42:53;;;;;;;;;;;;;;;;;;344530;28;957;-73
2022/03/31 00:43:04;;;;;;;;;;;;;;;;;;344671;28;1039;-73
2022/03/31 00:43:14;;;;;;;;;;;;;;;;;;344633;28;970;-73
2022/03/31 00:43:24;;;;;;;;;;;;;;;;;;344632;28;925;-73
2022/03/31 00:43:35;;;;;;;;;;;;;;;;;;344674;28;941;-73
2022/03/31 00:43:45;;;;;;;;;;;;;;;;;;344699;28;937;-73
2022/03/31 00:43:55;;;;;;;;;;;;;;;;;;344683;28;850;-73
2022/03/31 00:44:06;;;;;;;;;;;;;;;;;;344614;28;976;-73
2022/03/31 00:44:16;;;;;;;;;;;;;;;;;;344708;28;853;-73
2022/03/31 00:44:26;;;;;;;;;;;;;;;;;;344421;28;1604;-73
2022/03/31 00:44:37;;;;;;;;;;;;;;;;;;344627;28;873;-73
2022/03/31 00:44:47;;;;;;;;;;;;;;;;;;344689;28;905;-73
2022/03/31 00:44:58;;;;;;;;;;;;;;;;;;344602;28;901;-73
2022/03/31 00:45:12;;;;;;;;;;;;;;;;;;344678;28;782;-73
2022/03/31 00:45:24;;;;;;;;;;;;;;;;;;344377;28;1581;-73
2022/03/31 00:45:46;;;;;;;;;;;;;;;;;;344473;28;1577;-73
2022/03/31 00:45:58;;;;;;;;;;;;;;;;;;344629;28;961;-73
2022/03/31 00:46:09;;;;;;;;;;;;;;;;;;344584;28;932;-73
2022/03/31 00:46:22;;;;;;;;;;;;;;;;;;344676;28;948;-73
2022/03/31 00:46:32;;;;;;;;;;;;;;;;;;344688;28;944;-73
2022/03/31 00:46:49;;;;;;;;;;;;;;;;;;344680;28;890;-73
2022/03/31 00:47:00;;;;;;;;;;;;;;;;;;344582;28;905;-73
2022/03/31 00:47:10;;;;;;;;;;;;;;;;;;344658;28;968;-73
2022/03/31 00:47:21;;;;;;;;;;;;;;;;;;344645;28;917;-73
2022/03/31 00:47:34;;;;;;;;;;;;;;;;;;344533;28;1379;-73
2022/03/31 00:47:45;;;;;;;;;;;;;;;;;;343547;28;1525;-73
2022/03/31 00:47:56;;;;;;;;;;;;;;;;;;344698;28;966;-73
2022/03/31 00:48:06;;;;;;;;;;;;;;;;;;344636;28;937;-73
2022/03/31 00:48:17;;;;;;;;;;;;;;;;;;344567;28;977;-73
2022/03/31 00:48:27;;;;;;;;;;;;;;;;;;344642;28;897;-73
2022/03/31 00:48:39;;;;;;;;;;;;;;;;;;344664;28;981;-73
2022/03/31 00:48:49;;;;;;;;;;;;;;;;;;344691;28;916;-74
2022/03/31 00:49:01;;;;;;;;;;;;;;;;;;344607;28;925;-74
2022/03/31 00:49:12;;;;;;;;;;;;;;;;;;344495;28;916;-74
2022/03/31 00:49:23;;;;;;;;;;;;;;;;;;344659;28;953;-74
2022/03/31 00:49:34;;;;;;;;;;;;;;;;;;344405;28;1383;-74
2022/03/31 00:49:45;;;;;;;;;;;;;;;;;;344559;28;1556;-74
2022/03/31 00:49:55;;;;;;;;;;;;;;;;;;344585;28;965;-74
2022/03/31 00:50:05;;;;;;;;;;;;;;;;;;344679;28;985;-74
2022/03/31 00:50:16;;;;;;;;;;;;;;;;;;344405;28;1722;-74
2022/03/31 00:50:27;;;;;;;;;;;;;;;;;;344565;28;1789;-74
2022/03/31 00:50:37;;;;;;;;;;;;;;;;;;344634;28;1751;-74
2022/03/31 00:50:48;;;;;;;;;;;;;;;;;;344346;28;1801;-74
2022/03/31 00:50:58;;;;;;;;;;;;;;;;;;344558;28;1785;-74
2022/03/31 00:51:09;;;;;;;;;;;;;;;;;;344655;28;976;-74
2022/03/31 00:51:19;;;;;;;;;;;;;;;;;;344528;28;1644;-74
2022/03/31 00:51:29;;;;;;;;;;;;;;;;;;344407;28;1644;-74
2022/03/31 00:51:40;;;;;;;;;;;;;;;;;;344655;28;1360;-74
2022/03/31 00:51:52;;;;;;;;;;;;;;;;;;344662;28;968;-74
2022/03/31 00:52:02;;;;;;;;;;;;;;;;;;344577;28;1018;-74
2022/03/31 00:52:13;;;;;;;;;;;;;;;;;;344695;28;826;-74
2022/03/31 00:52:23;;;;;;;;;;;;;;;;;;344571;28;1012;-74
2022/03/31 00:52:33;;;;;;;;;;;;;;;;;;344677;28;869;-74
2022/03/31 00:52:44;;;;;;;;;;;;;;;;;;344622;28;988;-74
2022/03/31 00:52:54;;;;;;;;;;;;;;;;;;344627;28;1167;-74
2022/03/31 00:53:05;;;;;;;;;;;;;;;;;;344659;28;1012;-74
2022/03/31 00:53:18;;;;;;;;;;;;;;;;;;344635;28;846;-74
2022/03/31 00:53:28;;;;;;;;;;;;;;;;;;344116;28;1966;-74
2022/03/31 00:53:39;;;;;;;;;;;;;;;;;;344574;28;1534;-74
2022/03/31 00:53:50;;;;;;;;;;;;;;;;;;344626;28;925;-74
2022/03/31 00:54:00;;;;;;;;;;;;;;;;;;344689;28;964;-74
2022/03/31 00:54:12;;;;;;;;;;;;;;;;;;344605;28;1007;-74
2022/03/31 00:54:23;;;;;;;;;;;;;;;;;;344690;28;796;-74
2022/03/31 00:54:34;;;;;;;;;;;;;;;;;;344658;28;790;-74
2022/03/31 00:54:45;;;;;;;;;;;;;;;;;;344529;28;1391;-74
2022/03/31 00:54:55;;;;;;;;;;;;;;;;;;344473;28;1072;-74
2022/03/31 00:55:07;;;;;;;;;;;;;;;;;;344661;28;909;-74
2022/03/31 00:55:19;;;;;;;;;;;;;;;;;;344592;28;985;-74
2022/03/31 00:55:29;;;;;;;;;;;;;;;;;;344406;28;1593;-74
2022/03/31 00:55:39;;;;;;;;;;;;;;;;;;344545;28;1561;-74
2022/03/31 00:55:50;;;;;;;;;;;;;;;;;;344675;28;885;-74
2022/03/31 00:56:00;;;;;;;;;;;;;;;;;;344397;28;1597;-74
2022/03/31 00:56:11;;;;;;;;;;;;;;;;;;344558;28;1545;-74
2022/03/31 00:56:23;;;;;;;;;;;;;;;;;;344648;28;925;-74
2022/03/31 00:56:34;;;;;;;;;;;;;;;;;;344659;28;831;-74
2022/03/31 00:56:46;;;;;;;;;;;;;;;;;;344642;28;909;-74
2022/03/31 00:56:57;;;;;;;;;;;;;;;;;;344710;28;822;-74
2022/03/31 00:57:12;;;;;;;;;;;;;;;;;;344579;28;911;-74
2022/03/31 00:57:22;;;;;;;;;;;;;;;;;;344671;28;972;-74
2022/03/31 00:57:33;;;;;;;;;;;;;;;;;;344399;28;1679;-74
2022/03/31 00:57:44;;;;;;;;;;;;;;;;;;344610;28;903;-73
2022/03/31 00:57:55;;;;;;;;;;;;;;;;;;344651;28;850;-73
2022/03/31 00:58:06;;;;;;;;;;;;;;;;;;344003;28;1551;-73
2022/03/31 00:58:16;;;;;;;;;;;;;;;;;;345563;28;1665;-73
2022/03/31 00:58:27;;;;;;;;;;;;;;;;;;345956;28;933;-73
2022/03/31 00:58:37;;;;;;;;;;;;;;;;;;345931;28;1281;-73
2022/03/31 00:58:48;;;;;;;;;;;;;;;;;;346033;28;775;-73
2022/03/31 00:58:59;;;;;;;;;;;;;;;;;;346010;28;751;-73
2022/03/31 00:59:13;;;;;;;;;;;;;;;;;;345901;28;913;-73
2022/03/31 00:59:24;;;;;;;;;;;;;;;;;;344500;28;1546;-73
2022/03/31 00:59:35;;;;;;;;;;;;;;;;;;344553;28;968;-73
2022/03/31 00:59:45;;;;;;;;;;;;;;;;;;344596;28;925;-73
2022/03/31 00:59:56;;;;;;;;;;;;;;;;;;344659;28;838;-73
2022/03/31 01:00:07;;;;;;;;;;;;;;;;;;344714;28;763;-73
2022/03/31 01:00:18;;;;;;;;;;;;;;;;;;344565;28;953;-74
2022/03/31 01:00:29;;;;;;;;;;;;;;;;;;344262;28;1620;-74
2022/03/31 01:00:39;;;;;;;;;;;;;;;;;;344663;28;969;-74
2022/03/31 01:00:49;;;;;;;;;;;;;;;;;;344614;28;962;-74
2022/03/31 01:01:00;;;;;;;;;;;;;;;;;;344694;28;900;-74
2022/03/31 01:01:11;;;;;;;;;;;;;;;;;;344650;28;905;-74
2022/03/31 01:01:22;;;;;;;;;;;;;;;;;;344580;28;921;-74
2022/03/31 01:01:33;;;;;;;;;;;;;;;;;;344354;28;1233;-74
2022/03/31 01:01:44;;;;;;;;;;;;;;;;;;344599;28;933;-74
2022/03/31 01:01:55;;;;;;;;;;;;;;;;;;344630;28;878;-74
2022/03/31 01:02:06;;;;;;;;;;;;;;;;;;344677;28;775;-74
2022/03/31 01:02:16;;;;;;;;;;;;;;;;;;344597;28;977;-74
2022/03/31 01:02:28;;;;;;;;;;;;;;;;;;344599;28;896;-74
2022/03/31 01:02:38;;;;;;;;;;;;;;;;;;344357;28;1565;-74
2022/03/31 01:02:49;;;;;;;;;;;;;;;;;;344684;28;782;-74
2022/03/31 01:03:00;;;;;;;;;;;;;;;;;;344546;28;800;-74
2022/03/31 01:03:10;;;;;;;;;;;;;;;;;;344648;28;964;-74
2022/03/31 01:03:21;;;;;;;;;;;;;;;;;;344614;28;977;-74
2022/03/31 01:03:32;;;;;;;;;;;;;;;;;;344574;28;933;-74
2022/03/31 01:03:45;;;;;;;;;;;;;;;;;;344614;28;818;-74
2022/03/31 01:03:55;;;;;;;;;;;;;;;;;;344586;28;1035;-74
2022/03/31 01:04:06;;;;;;;;;;;;;;;;;;344388;28;1098;-73
2022/03/31 01:04:16;;;;;;;;;;;;;;;;;;344662;28;976;-73
2022/03/31 01:04:28;;;;;;;;;;;;;;;;;;344685;28;996;-73
2022/03/31 01:04:39;;;;;;;;;;;;;;;;;;344283;28;1596;-73
2022/03/31 01:04:51;;;;;;;;;;;;;;;;;;344591;28;1561;-73
2022/03/31 01:05:02;;;;;;;;;;;;;;;;;;344663;28;811;-73
2022/03/31 01:05:14;;;;;;;;;;;;;;;;;;344526;28;1624;-73
2022/03/31 01:05:24;;;;;;;;;;;;;;;;;;344675;28;774;-73
2022/03/31 01:05:38;;;;;;;;;;;;;;;;;;344660;28;921;-73
2022/03/31 01:05:48;;;;;;;;;;;;;;;;;;344574;28;838;-73
2022/03/31 01:05:58;;;;;;;;;;;;;;;;;;344335;28;1841;-74
2022/03/31 01:06:09;;;;;;;;;;;;;;;;;;344378;28;1509;-74
2022/03/31 01:06:19;;;;;;;;;;;;;;;;;;344623;28;854;-74
2022/03/31 01:06:29;;;;;;;;;;;;;;;;;;344673;28;906;-74
2022/03/31 01:06:40;;;;;;;;;;;;;;;;;;344598;28;974;-74
2022/03/31 01:06:50;;;;;;;;;;;;;;;;;;344553;28;853;-74
2022/03/31 01:07:01;;;;;;;;;;;;;;;;;;344600;28;889;-74
2022/03/31 01:07:11;;;;;;;;;;;;;;;;;;344652;28;862;-73
2022/03/31 01:07:22;;;;;;;;;;;;;;;;;;344623;28;984;-73
2022/03/31 01:07:37;;;;;;;;;;;;;;;;;;344399;28;1545;-73
2022/03/31 01:07:47;;;;;;;;;;;;;;;;;;344589;28;842;-73
2022/03/31 01:07:57;;;;;;;;;;;;;;;;;;344390;28;1541;-73
2022/03/31 01:08:08;;;;;;;;;;;;;;;;;;344706;28;969;-73
2022/03/31 01:08:18;;;;;;;;;;;;;;;;;;344649;28;906;-73
2022/03/31 01:08:29;;;;;;;;;;;;;;;;;;344585;28;905;-73
2022/03/31 01:08:40;;;;;;;;;;;;;;;;;;344625;28;913;-73
2022/03/31 01:08:50;;;;;;;;;;;;;;;;;;344540;28;921;-73
2022/03/31 01:09:01;;;;;;;;;;;;;;;;;;344668;28;913;-73
2022/03/31 01:09:13;;;;;;;;;;;;;;;;;;344602;28;884;-73
2022/03/31 01:09:24;;;;;;;;;;;;;;;;;;344708;28;775;-73
2022/03/31 01:09:34;;;;;;;;;;;;;;;;;;344423;28;1482;-73
2022/03/31 01:09:45;;;;;;;;;;;;;;;;;;344533;28;953;-73
2022/03/31 01:09:58;;;;;;;;;;;;;;;;;;344608;28;945;-73
2022/03/31 01:10:09;;;;;;;;;;;;;;;;;;344609;28;988;-73
2022/03/31 01:10:19;;;;;;;;;;;;;;;;;;344525;28;953;-73
2022/03/31 01:10:29;;;;;;;;;;;;;;;;;;344682;28;918;-73
2022/03/31 01:10:39;;;;;;;;;;;;;;;;;;344672;28;946;-73
2022/03/31 01:10:52;;;;;;;;;;;;;;;;;;344620;28;921;-73
2022/03/31 01:11:03;;;;;;;;;;;;;;;;;;344557;28;1149;-73
2022/03/31 01:11:13;;;;;;;;;;;;;;;;;;344665;28;913;-73
2022/03/31 01:11:23;;;;;;;;;;;;;;;;;;344687;28;843;-73
2022/03/31 01:11:34;;;;;;;;;;;;;;;;;;344597;28;929;-73
2022/03/31 01:11:45;;;;;;;;;;;;;;;;;;344655;28;921;-73
2022/03/31 01:11:56;;;;;;;;;;;;;;;;;;344598;28;953;-73
2022/03/31 01:12:06;;;;;;;;;;;;;;;;;;344507;28;878;-73
2022/03/31 01:12:17;;;;;;;;;;;;;;;;;;344648;28;1081;-73
2022/03/31 01:12:27;;;;;;;;;;;;;;;;;;344645;28;1413;-73
2022/03/31 01:12:38;;;;;;;;;;;;;;;;;;344409;28;1648;-73
2022/03/31 01:12:49;;;;;;;;;;;;;;;;;;344549;28;945;-73
2022/03/31 01:13:03;;;;;;;;;;;;;;;;;;344630;28;922;-73
2022/03/31 01:13:13;;;;;;;;;;;;;;;;;;344634;28;917;-73
2022/03/31 01:13:24;;;;;;;;;;;;;;;;;;344607;28;826;-73
2022/03/31 01:13:34;;;;;;;;;;;;;;;;;;344565;28;1981;-73
2022/03/31 01:13:45;;;;;;;;;;;;;;;;;;344589;28;926;-73
2022/03/31 01:13:55;;;;;;;;;;;;;;;;;;344608;28;1013;-73
2022/03/31 01:14:09;;;;;;;;;;;;;;;;;;344564;28;786;-73
2022/03/31 01:14:20;;;;;;;;;;;;;;;;;;344633;28;883;-73
2022/03/31 01:14:31;;;;;;;;;;;;;;;;;;344665;28;858;-73
2022/03/31 01:14:41;;;;;;;;;;;;;;;;;;344391;28;1526;-73
2022/03/31 01:15:14;;;;;;;;;;;;;;;;;;344519;28;1483;-73
2022/03/31 01:15:25;;;;;;;;;;;;;;;;;;344633;28;886;-73
2022/03/31 01:15:36;;;;;;;;;;;;;;;;;;344593;28;929;-73
2022/03/31 01:15:46;;;;;;;;;;;;;;;;;;344338;28;1617;-73
2022/03/31 01:15:56;;;;;;;;;;;;;;;;;;344541;28;1091;-73
2022/03/31 01:16:07;;;;;;;;;;;;;;;;;;344608;28;942;-73
2022/03/31 01:16:18;;;;;;;;;;;;;;;;;;344617;28;842;-73
2022/03/31 01:16:31;;;;;;;;;;;;;;;;;;344563;28;993;-73
2022/03/31 01:16:42;;;;;;;;;;;;;;;;;;344552;28;921;-73
2022/03/31 01:16:52;;;;;;;;;;;;;;;;;;344495;28;1851;-73
2022/03/31 01:17:02;;;;;;;;;;;;;;;;;;344153;28;1714;-73
2022/03/31 01:17:13;;;;;;;;;;;;;;;;;;344542;28;1833;-73
2022/03/31 01:17:23;;;;;;;;;;;;;;;;;;344575;28;980;-73
2022/03/31 01:17:37;;;;;;;;;;;;;;;;;;344614;28;913;-73
2022/03/31 01:17:48;;;;;;;;;;;;;;;;;;344551;28;1553;-73
2022/03/31 01:17:59;;;;;;;;;;;;;;;;;;344523;28;922;-73
2022/03/31 01:18:10;;;;;;;;;;;;;;;;;;344613;28;917;-73
2022/03/31 01:18:20;;;;;;;;;;;;;;;;;;344510;28;933;-73
2022/03/31 01:18:31;;;;;;;;;;;;;;;;;;344588;28;941;-73
2022/03/31 01:18:41;;;;;;;;;;;;;;;;;;344598;28;850;-73
2022/03/31 01:18:52;;;;;;;;;;;;;;;;;;344594;28;906;-73
2022/03/31 01:19:06;;;;;;;;;;;;;;;;;;344277;28;1805;-73
2022/03/31 01:19:17;;;;;;;;;;;;;;;;;;343303;28;893;-73
2022/03/31 01:19:27;;;;;;;;;;;;;;;;;;343283;28;964;-73
2022/03/31 01:19:37;;;;;;;;;;;;;;;;;;343260;28;1550;-73
2022/03/31 01:19:47;;;;;;;;;;;;;;;;;;344532;28;1541;-73
2022/03/31 01:19:58;;;;;;;;;;;;;;;;;;344532;28;1557;-73
2022/03/31 01:20:09;;;;;;;;;;;;;;;;;;344596;28;1004;-73
2022/03/31 01:20:20;;;;;;;;;;;;;;;;;;344438;28;1773;-73
2022/03/31 01:20:33;;;;;;;;;;;;;;;;;;343328;28;1767;-73
2022/03/31 01:20:43;;;;;;;;;;;;;;;;;;344636;28;992;-73
2022/03/31 01:20:53;;;;;;;;;;;;;;;;;;344616;28;898;-73
2022/03/31 01:21:04;;;;;;;;;;;;;;;;;;344352;28;1600;-73
2022/03/31 01:21:14;;;;;;;;;;;;;;;;;;344557;28;1044;-73
2022/03/31 01:21:25;;;;;;;;;;;;;;;;;;344551;28;921;-73
2022/03/31 01:21:43;;;;;;;;;;;;;;;;;;344615;28;846;-73
2022/03/31 01:21:53;;;;;;;;;;;;;;;;;;344616;28;905;-73
2022/03/31 01:22:05;;;;;;;;;;;;;;;;;;344370;28;1597;-73
2022/03/31 01:22:15;;;;;;;;;;;;;;;;;;344554;28;1001;-73
2022/03/31 01:22:28;;;;;;;;;;;;;;;;;;344366;28;1596;-73
2022/03/31 01:22:38;;;;;;;;;;;;;;;;;;344660;28;885;-73
2022/03/31 01:22:50;;;;;;;;;;;;;;;;;;344657;28;969;-73
2022/03/31 01:23:01;;;;;;;;;;;;;;;;;;344607;28;862;-73
2022/03/31 01:23:11;;;;;;;;;;;;;;;;;;344541;28;909;-73
2022/03/31 01:23:22;;;;;;;;;;;;;;;;;;344513;28;953;-73
2022/03/31 01:23:33;;;;;;;;;;;;;;;;;;344642;28;965;-73
2022/03/31 01:23:44;;;;;;;;;;;;;;;;;;344649;28;1008;-73
2022/03/31 01:23:55;;;;;;;;;;;;;;;;;;344648;28;881;-73
2022/03/31 01:24:09;;;;;;;;;;;;;;;;;;344277;28;1553;-73
2022/03/31 01:24:19;;;;;;;;;;;;;;;;;;344574;28;915;-73
2022/03/31 01:24:30;;;;;;;;;;;;;;;;;;344573;28;858;-73
2022/03/31 01:24:40;;;;;;;;;;;;;;;;;;344262;28;1578;-73
2022/03/31 01:24:51;;;;;;;;;;;;;;;;;;344534;28;1417;-73
2022/03/31 01:25:04;;;;;;;;;;;;;;;;;;344466;28;912;-73
2022/03/31 01:25:14;;;;;;;;;;;;;;;;;;344505;28;921;-73
2022/03/31 01:25:25;;;;;;;;;;;;;;;;;;344515;28;865;-73
2022/03/31 01:25:35;;;;;;;;;;;;;;;;;;344498;28;1032;-73
2022/03/31 01:25:45;;;;;;;;;;;;;;;;;;344537;28;774;-73
2022/03/31 01:25:56;;;;;;;;;;;;;;;;;;344428;28;910;-73
2022/03/31 01:26:09;;;;;;;;;;;;;;;;;;344501;28;881;-73
2022/03/31 01:26:21;;;;;;;;;;;;;;;;;;344503;28;933;-73
2022/03/31 01:26:31;;;;;;;;;;;;;;;;;;344567;28;874;-73
2022/03/31 01:26:42;;;;;;;;;;;;;;;;;;344524;28;906;-73
2022/03/31 01:26:52;;;;;;;;;;;;;;;;;;344560;28;972;-73
2022/03/31 01:27:02;;;;;;;;;;;;;;;;;;344643;28;961;-73
2022/03/31 01:27:13;;;;;;;;;;;;;;;;;;344574;28;917;-73
2022/03/31 01:27:24;;;;;;;;;;;;;;;;;;344592;28;862;-73
2022/03/31 01:27:35;;;;;;;;;;;;;;;;;;344453;28;1573;-73
2022/03/31 01:27:46;;;;;;;;;;;;;;;;;;344555;28;921;-73
2022/03/31 01:27:57;;;;;;;;;;;;;;;;;;344523;28;901;-73
2022/03/31 01:28:07;;;;;;;;;;;;;;;;;;343819;28;1583;-73
2022/03/31 01:28:18;;;;;;;;;;;;;;;;;;345029;28;1475;-73
2022/03/31 01:28:28;;;;;;;;;;;;;;;;;;345378;28;1654;-73
2022/03/31 01:28:40;;;;;;;;;;;;;;;;;;344428;28;1195;-73
2022/03/31 01:28:51;;;;;;;;;;;;;;;;;;345944;28;960;-73
2022/03/31 01:29:02;;;;;;;;;;;;;;;;;;345928;28;980;-73
2022/03/31 01:29:12;;;;;;;;;;;;;;;;;;345954;28;948;-73
2022/03/31 01:29:26;;;;;;;;;;;;;;;;;;345979;28;956;-73
2022/03/31 01:29:37;;;;;;;;;;;;;;;;;;345900;28;901;-73
2022/03/31 01:29:47;;;;;;;;;;;;;;;;;;345925;28;980;-73
2022/03/31 01:29:57;;;;;;;;;;;;;;;;;;345624;28;1703;-72
2022/03/31 01:30:09;;;;;;;;;;;;;;;;;;343629;28;1536;-73
2022/03/31 01:30:21;;;;;;;;;;;;;;;;;;344556;28;961;-73
2022/03/31 01:30:32;;;;;;;;;;;;;;;;;;344641;28;917;-73
2022/03/31 01:30:42;;;;;;;;;;;;;;;;;;344438;28;1561;-73
2022/03/31 01:30:53;;;;;;;;;;;;;;;;;;345656;28;1321;-73
2022/03/31 01:31:04;;;;;;;;;;;;;;;;;;345959;28;801;-73
2022/03/31 01:31:15;;;;;;;;;;;;;;;;;;345870;28;913;-73
2022/03/31 01:31:26;;;;;;;;;;;;;;;;;;345992;28;917;-73
2022/03/31 01:31:38;;;;;;;;;;;;;;;;;;345903;28;783;-73
2022/03/31 01:31:49;;;;;;;;;;;;;;;;;;345859;28;984;-73
2022/03/31 01:31:59;;;;;;;;;;;;;;;;;;345900;28;941;-73
2022/03/31 01:32:11;;;;;;;;;;;;;;;;;;345996;28;775;-73